aviador You're here:

K4I3 Decoded Metar

in _UNIDENTIFIED
Report Time2017-09-20 16:04:00
UTC Time2017-09-20 16:16:05
Flight Rules vfr VFR
WindCalm
Visibility9999 m
Phenomena:N/A
Clouds:Scattered 005 Hf
Expected CloudBase > 400 ft AGL from Temp-Dew spread
CeilingNone
Temp22°C (ISA +9)
Dew Point21°C (94% RH)
QNH1019 hPa
Density Alt2,411 ft
Elevation1,191 ft
Report Wrong Elevation
Raw Report
METAR K4I3 201604Z AUTO 00000KT 10SM SCT005 22/21 A3008 RMK AO2=

Extra information for K4I3:More info

Metar Taf Metar & Taf Last 4 Metars F.Rules Stats Wind Profile Meteogram Temp Stats Metar ALERT Operation Metar Decoded Social comments